sensor_id;sensor_type;location;lat;lon;timestamp;temperature;humidity
20833;DHT22;56075;51.264;7.150;2022-10-22T00:00:45;15.30;99.90
20833;DHT22;56075;51.264;7.150;2022-10-22T00:03:16;14.50;99.90
20833;DHT22;56075;51.264;7.150;2022-10-22T00:05:47;15.40;99.90
20833;DHT22;56075;51.264;7.150;2022-10-22T00:08:19;14.50;99.90
20833;DHT22;56075;51.264;7.150;2022-10-22T00:10:50;15.90;99.90
20833;DHT22;56075;51.264;7.150;2022-10-22T00:13:22;14.50;99.90
20833;DHT22;56075;51.264;7.150;2022-10-22T00:15:53;14.50;99.90
20833;DHT22;56075;51.264;7.150;2022-10-22T00:18:24;15.40;99.90
20833;DHT22;56075;51.264;7.150;2022-10-22T00:20:56;14.60;99.90
20833;DHT22;56075;51.264;7.150;2022-10-22T00:23:27;14.70;99.90
20833;DHT22;56075;51.264;7.150;2022-10-22T00:25:58;14.80;99.90
20833;DHT22;56075;51.264;7.150;2022-10-22T00:28:29;14.70;99.90
20833;DHT22;56075;51.264;7.150;2022-10-22T00:31:01;16.40;99.90
20833;DHT22;56075;51.264;7.150;2022-10-22T00:33:33;14.90;99.90
20833;DHT22;56075;51.264;7.150;2022-10-22T00:36:05;16.50;99.90
20833;DHT22;56075;51.264;7.150;2022-10-22T00:38:36;14.80;99.90
20833;DHT22;56075;51.264;7.150;2022-10-22T00:41:08;16.20;99.90
20833;DHT22;56075;51.264;7.150;2022-10-22T00:43:56;14.80;99.90
20833;DHT22;56075;51.264;7.150;2022-10-22T00:46:28;14.80;99.90
20833;DHT22;56075;51.264;7.150;2022-10-22T00:49:02;17.00;99.90
20833;DHT22;56075;51.264;7.150;2022-10-22T00:51:34;16.50;99.90
20833;DHT22;56075;51.264;7.150;2022-10-22T00:54:07;16.40;99.90
20833;DHT22;56075;51.264;7.150;2022-10-22T00:56:38;14.60;99.90
20833;DHT22;56075;51.264;7.150;2022-10-22T00:59:11;15.50;99.90
20833;DHT22;56075;51.264;7.150;2022-10-22T01:01:43;16.30;99.90
20833;DHT22;56075;51.264;7.150;2022-10-22T01:04:15;15.90;99.90
20833;DHT22;56075;51.264;7.150;2022-10-22T01:06:47;14.90;99.90
20833;DHT22;56075;51.264;7.150;2022-10-22T01:09:45;16.10;99.90
20833;DHT22;56075;51.264;7.150;2022-10-22T01:15:06;15.90;99.90
20833;DHT22;56075;51.264;7.150;2022-10-22T01:20:58;14.90;99.90
20833;DHT22;56075;51.264;7.150;2022-10-22T01:26:41;14.90;99.90
20833;DHT22;56075;51.264;7.150;2022-10-22T01:29:18;14.90;99.90
20833;DHT22;56075;51.264;7.150;2022-10-22T01:31:58;14.60;99.90
20833;DHT22;56075;51.264;7.150;2022-10-22T01:34:31;14.90;99.90
20833;DHT22;56075;51.264;7.150;2022-10-22T01:37:03;15.50;99.90
20833;DHT22;56075;51.264;7.150;2022-10-22T01:39:35;14.70;99.90
20833;DHT22;56075;51.264;7.150;2022-10-22T01:42:08;15.70;99.90
20833;DHT22;56075;51.264;7.150;2022-10-22T01:44:41;16.70;99.90
20833;DHT22;56075;51.264;7.150;2022-10-22T01:47:46;14.70;99.90
20833;DHT22;56075;51.264;7.150;2022-10-22T02:02:18;14.50;99.90
20833;DHT22;56075;51.264;7.150;2022-10-22T02:05:11;15.60;99.90
20833;DHT22;56075;51.264;7.150;2022-10-22T02:07:48;14.60;99.90
20833;DHT22;56075;51.264;7.150;2022-10-22T02:10:21;16.50;99.90
20833;DHT22;56075;51.264;7.150;2022-10-22T02:12:54;16.10;99.90
20833;DHT22;56075;51.264;7.150;2022-10-22T02:15:28;16.20;99.90
20833;DHT22;56075;51.264;7.150;2022-10-22T02:18:02;14.30;99.90
20833;DHT22;56075;51.264;7.150;2022-10-22T02:20:36;14.30;99.90
20833;DHT22;56075;51.264;7.150;2022-10-22T02:23:09;14.10;99.90
20833;DHT22;56075;51.264;7.150;2022-10-22T02:25:43;14.40;99.90
20833;DHT22;56075;51.264;7.150;2022-10-22T02:28:36;14.10;99.90
20833;DHT22;56075;51.264;7.150;2022-10-22T02:31:22;14.40;99.90
20833;DHT22;56075;51.264;7.150;2022-10-22T02:33:56;16.10;99.90
20833;DHT22;56075;51.264;7.150;2022-10-22T02:36:27;15.80;99.90
20833;DHT22;56075;51.264;7.150;2022-10-22T02:38:59;14.10;99.90
20833;DHT22;56075;51.264;7.150;2022-10-22T02:41:31;14.10;99.90
20833;DHT22;56075;51.264;7.150;2022-10-22T02:44:07;14.40;99.90
20833;DHT22;56075;51.264;7.150;2022-10-22T02:46:39;14.10;99.90
20833;DHT22;56075;51.264;7.150;2022-10-22T02:49:10;14.30;99.90
20833;DHT22;56075;51.264;7.150;2022-10-22T02:51:41;14.50;99.90
20833;DHT22;56075;51.264;7.150;2022-10-22T02:54:12;14.50;99.90
20833;DHT22;56075;51.264;7.150;2022-10-22T02:56:43;14.40;99.90
20833;DHT22;56075;51.264;7.150;2022-10-22T02:59:15;15.70;99.90
20833;DHT22;56075;51.264;7.150;2022-10-22T03:01:46;14.30;99.90
20833;DHT22;56075;51.264;7.150;2022-10-22T03:04:17;15.80;99.90
20833;DHT22;56075;51.264;7.150;2022-10-22T03:06:48;14.10;99.90
20833;DHT22;56075;51.264;7.150;2022-10-22T03:09:19;14.10;99.90
20833;DHT22;56075;51.264;7.150;2022-10-22T03:11:51;14.10;99.90
20833;DHT22;56075;51.264;7.150;2022-10-22T03:14:22;14.30;99.90
20833;DHT22;56075;51.264;7.150;2022-10-22T03:16:53;14.20;99.90
20833;DHT22;56075;51.264;7.150;2022-10-22T03:19:24;14.00;99.90
20833;DHT22;56075;51.264;7.150;2022-10-22T03:21:59;16.30;99.90
20833;DHT22;56075;51.264;7.150;2022-10-22T03:24:35;15.70;99.90
20833;DHT22;56075;51.264;7.150;2022-10-22T03:27:08;14.20;99.90
20833;DHT22;56075;51.264;7.150;2022-10-22T03:29:41;16.20;99.90
20833;DHT22;56075;51.264;7.150;2022-10-22T03:32:12;15.20;99.90
20833;DHT22;56075;51.264;7.150;2022-10-22T03:34:44;15.60;99.90
20833;DHT22;56075;51.264;7.150;2022-10-22T03:37:15;14.00;99.90
20833;DHT22;56075;51.264;7.150;2022-10-22T03:39:47;13.80;99.90
20833;DHT22;56075;51.264;7.150;2022-10-22T03:42:18;14.00;99.90
20833;DHT22;56075;51.264;7.150;2022-10-22T03:44:50;15.60;99.90
20833;DHT22;56075;51.264;7.150;2022-10-22T03:47:21;15.10;99.90
20833;DHT22;56075;51.264;7.150;2022-10-22T03:49:54;14.10;99.90
20833;DHT22;56075;51.264;7.150;2022-10-22T03:52:25;14.10;99.90
20833;DHT22;56075;51.264;7.150;2022-10-22T03:54:56;14.10;99.90
20833;DHT22;56075;51.264;7.150;2022-10-22T03:57:27;14.10;99.90
20833;DHT22;56075;51.264;7.150;2022-10-22T03:59:58;13.90;99.90
20833;DHT22;56075;51.264;7.150;2022-10-22T04:02:29;14.10;99.90
20833;DHT22;56075;51.264;7.150;2022-10-22T04:05:01;13.90;99.90
20833;DHT22;56075;51.264;7.150;2022-10-22T04:07:32;13.90;99.90
20833;DHT22;56075;51.264;7.150;2022-10-22T04:10:04;13.80;99.90
20833;DHT22;56075;51.264;7.150;2022-10-22T04:12:35;13.90;99.90
20833;DHT22;56075;51.264;7.150;2022-10-22T04:15:06;13.90;99.90
20833;DHT22;56075;51.264;7.150;2022-10-22T04:17:38;13.90;99.90
20833;DHT22;56075;51.264;7.150;2022-10-22T04:20:09;13.80;99.90
20833;DHT22;56075;51.264;7.150;2022-10-22T04:22:40;14.00;99.90
20833;DHT22;56075;51.264;7.150;2022-10-22T04:25:11;13.90;99.90
20833;DHT22;56075;51.264;7.150;2022-10-22T04:27:43;14.00;99.90
20833;DHT22;56075;51.264;7.150;2022-10-22T04:30:14;13.80;99.90
20833;DHT22;56075;51.264;7.150;2022-10-22T04:32:45;13.90;99.90
20833;DHT22;56075;51.264;7.150;2022-10-22T04:35:16;14.90;99.90
20833;DHT22;56075;51.264;7.150;2022-10-22T04:37:47;14.90;99.90
20833;DHT22;56075;51.264;7.150;2022-10-22T04:40:18;14.90;99.90
20833;DHT22;56075;51.264;7.150;2022-10-22T04:42:49;13.90;99.90
20833;DHT22;56075;51.264;7.150;2022-10-22T04:45:20;13.90;99.90
20833;DHT22;56075;51.264;7.150;2022-10-22T04:47:52;15.10;99.90
20833;DHT22;56075;51.264;7.150;2022-10-22T04:50:23;13.70;99.90
20833;DHT22;56075;51.264;7.150;2022-10-22T04:52:56;14.80;99.90
20833;DHT22;56075;51.264;7.150;2022-10-22T04:55:27;13.90;99.90
20833;DHT22;56075;51.264;7.150;2022-10-22T04:57:58;13.90;99.90
20833;DHT22;56075;51.264;7.150;2022-10-22T05:00:31;15.70;99.90
20833;DHT22;56075;51.264;7.150;2022-10-22T05:03:02;15.30;99.90
20833;DHT22;56075;51.264;7.150;2022-10-22T05:05:33;14.20;99.90
20833;DHT22;56075;51.264;7.150;2022-10-22T05:08:04;14.00;99.90
20833;DHT22;56075;51.264;7.150;2022-10-22T05:10:35;14.10;99.90
20833;DHT22;56075;51.264;7.150;2022-10-22T05:13:06;14.20;99.90
20833;DHT22;56075;51.264;7.150;2022-10-22T05:15:37;15.90;99.90
20833;DHT22;56075;51.264;7.150;2022-10-22T05:18:09;13.90;99.90
20833;DHT22;56075;51.264;7.150;2022-10-22T05:20:40;14.20;99.90
20833;DHT22;56075;51.264;7.150;2022-10-22T05:23:11;15.40;99.90
20833;DHT22;56075;51.264;7.150;2022-10-22T05:25:42;13.90;99.90
20833;DHT22;56075;51.264;7.150;2022-10-22T05:28:13;15.80;99.90
20833;DHT22;56075;51.264;7.150;2022-10-22T05:30:55;13.90;99.90
20833;DHT22;56075;51.264;7.150;2022-10-22T05:33:28;16.00;99.90
20833;DHT22;56075;51.264;7.150;2022-10-22T05:36:00;13.80;99.90
20833;DHT22;56075;51.264;7.150;2022-10-22T05:38:33;13.60;99.90
20833;DHT22;56075;51.264;7.150;2022-10-22T05:41:07;15.30;99.90
20833;DHT22;56075;51.264;7.150;2022-10-22T05:43:39;15.30;99.90
20833;DHT22;56075;51.264;7.150;2022-10-22T05:46:15;13.80;99.90
20833;DHT22;56075;51.264;7.150;2022-10-22T05:48:55;13.40;99.90
20833;DHT22;56075;51.264;7.150;2022-10-22T05:51:28;13.40;99.90
20833;DHT22;56075;51.264;7.150;2022-10-22T05:54:02;13.50;99.90
20833;DHT22;56075;51.264;7.150;2022-10-22T05:56:34;13.60;99.90
20833;DHT22;56075;51.264;7.150;2022-10-22T05:59:05;15.40;99.90
20833;DHT22;56075;51.264;7.150;2022-10-22T06:01:38;14.90;99.90
20833;DHT22;56075;51.264;7.150;2022-10-22T06:04:11;13.50;99.90
20833;DHT22;56075;51.264;7.150;2022-10-22T06:06:45;14.10;99.90
20833;DHT22;56075;51.264;7.150;2022-10-22T06:09:24;13.40;99.90
20833;DHT22;56075;51.264;7.150;2022-10-22T06:11:57;13.70;99.90
20833;DHT22;56075;51.264;7.150;2022-10-22T06:14:29;13.50;99.90
20833;DHT22;56075;51.264;7.150;2022-10-22T06:17:02;13.80;99.90
20833;DHT22;56075;51.264;7.150;2022-10-22T06:19:33;14.90;99.90
20833;DHT22;56075;51.264;7.150;2022-10-22T06:22:04;13.50;99.90
20833;DHT22;56075;51.264;7.150;2022-10-22T06:24:35;14.70;99.90
20833;DHT22;56075;51.264;7.150;2022-10-22T06:27:06;13.50;99.90
20833;DHT22;56075;51.264;7.150;2022-10-22T06:29:38;13.50;99.90
20833;DHT22;56075;51.264;7.150;2022-10-22T06:32:09;13.60;99.90
20833;DHT22;56075;51.264;7.150;2022-10-22T06:34:40;14.80;99.90
20833;DHT22;56075;51.264;7.150;2022-10-22T06:37:11;15.60;99.90
20833;DHT22;56075;51.264;7.150;2022-10-22T06:39:43;13.60;99.90
20833;DHT22;56075;51.264;7.150;2022-10-22T06:42:14;13.70;99.90
20833;DHT22;56075;51.264;7.150;2022-10-22T06:44:46;13.60;99.90
20833;DHT22;56075;51.264;7.150;2022-10-22T06:47:17;13.70;99.90
20833;DHT22;56075;51.264;7.150;2022-10-22T06:49:48;13.70;99.90
20833;DHT22;56075;51.264;7.150;2022-10-22T06:52:19;13.80;99.90
20833;DHT22;56075;51.264;7.150;2022-10-22T06:54:51;14.30;99.90
20833;DHT22;56075;51.264;7.150;2022-10-22T06:57:22;13.80;99.90
20833;DHT22;56075;51.264;7.150;2022-10-22T06:59:53;13.90;99.90
20833;DHT22;56075;51.264;7.150;2022-10-22T07:02:24;14.20;99.90
20833;DHT22;56075;51.264;7.150;2022-10-22T07:04:55;15.70;99.90
20833;DHT22;56075;51.264;7.150;2022-10-22T07:07:26;14.30;99.90
20833;DHT22;56075;51.264;7.150;2022-10-22T07:09:58;15.70;99.90
20833;DHT22;56075;51.264;7.150;2022-10-22T07:12:29;15.10;99.90
20833;DHT22;56075;51.264;7.150;2022-10-22T07:15:00;14.50;99.90
20833;DHT22;56075;51.264;7.150;2022-10-22T07:17:32;14.30;99.90
20833;DHT22;56075;51.264;7.150;2022-10-22T07:20:04;14.40;99.90
20833;DHT22;56075;51.264;7.150;2022-10-22T07:22:35;14.40;99.90
20833;DHT22;56075;51.264;7.150;2022-10-22T07:25:06;14.40;99.90
20833;DHT22;56075;51.264;7.150;2022-10-22T07:27:37;14.40;99.90
20833;DHT22;56075;51.264;7.150;2022-10-22T07:30:09;14.40;99.90
20833;DHT22;56075;51.264;7.150;2022-10-22T07:32:40;14.60;99.90
20833;DHT22;56075;51.264;7.150;2022-10-22T07:35:11;14.40;99.90
20833;DHT22;56075;51.264;7.150;2022-10-22T07:37:42;15.90;99.90
20833;DHT22;56075;51.264;7.150;2022-10-22T07:40:13;14.80;99.90
20833;DHT22;56075;51.264;7.150;2022-10-22T07:42:45;14.70;99.90
20833;DHT22;56075;51.264;7.150;2022-10-22T07:45:16;14.70;99.90
20833;DHT22;56075;51.264;7.150;2022-10-22T07:47:47;15.10;99.90
20833;DHT22;56075;51.264;7.150;2022-10-22T07:50:19;15.00;99.90
20833;DHT22;56075;51.264;7.150;2022-10-22T07:52:50;15.10;99.90
20833;DHT22;56075;51.264;7.150;2022-10-22T07:55:21;15.10;99.90
20833;DHT22;56075;51.264;7.150;2022-10-22T07:57:52;16.60;99.90
20833;DHT22;56075;51.264;7.150;2022-10-22T08:00:24;15.30;99.90
20833;DHT22;56075;51.264;7.150;2022-10-22T08:02:56;17.00;99.90
20833;DHT22;56075;51.264;7.150;2022-10-22T08:05:27;15.40;99.90
20833;DHT22;56075;51.264;7.150;2022-10-22T08:07:58;17.50;99.90
20833;DHT22;56075;51.264;7.150;2022-10-22T08:10:29;17.50;99.90
20833;DHT22;56075;51.264;7.150;2022-10-22T08:13:00;15.70;99.90
20833;DHT22;56075;51.264;7.150;2022-10-22T08:15:33;16.20;99.90
20833;DHT22;56075;51.264;7.150;2022-10-22T08:18:04;15.60;99.90
20833;DHT22;56075;51.264;7.150;2022-10-22T08:20:35;16.00;99.90
20833;DHT22;56075;51.264;7.150;2022-10-22T08:23:07;17.50;99.90
20833;DHT22;56075;51.264;7.150;2022-10-22T08:25:38;16.70;99.90
20833;DHT22;56075;51.264;7.150;2022-10-22T08:28:09;17.10;99.90
20833;DHT22;56075;51.264;7.150;2022-10-22T08:30:40;16.10;99.90
20833;DHT22;56075;51.264;7.150;2022-10-22T08:33:12;16.20;99.90
20833;DHT22;56075;51.264;7.150;2022-10-22T08:35:48;16.20;99.90
20833;DHT22;56075;51.264;7.150;2022-10-22T08:38:19;16.70;99.90
20833;DHT22;56075;51.264;7.150;2022-10-22T08:40:53;16.30;99.90
20833;DHT22;56075;51.264;7.150;2022-10-22T08:43:45;18.40;99.90
20833;DHT22;56075;51.264;7.150;2022-10-22T08:46:44;17.10;99.90
20833;DHT22;56075;51.264;7.150;2022-10-22T08:49:23;16.30;99.90
20833;DHT22;56075;51.264;7.150;2022-10-22T08:51:56;18.20;99.90
20833;DHT22;56075;51.264;7.150;2022-10-22T08:57:23;17.60;99.90
20833;DHT22;56075;51.264;7.150;2022-10-22T09:00:04;16.20;99.90
20833;DHT22;56075;51.264;7.150;2022-10-22T09:02:56;17.10;99.90
20833;DHT22;56075;51.264;7.150;2022-10-22T09:05:38;16.50;99.90
20833;DHT22;56075;51.264;7.150;2022-10-22T09:08:12;16.30;99.90
20833;DHT22;56075;51.264;7.150;2022-10-22T09:10:51;16.40;99.90
20833;DHT22;56075;51.264;7.150;2022-10-22T09:13:23;16.40;99.90
20833;DHT22;56075;51.264;7.150;2022-10-22T09:15:59;17.90;99.90
20833;DHT22;56075;51.264;7.150;2022-10-22T09:21:26;16.40;99.90
20833;DHT22;56075;51.264;7.150;2022-10-22T09:26:36;17.10;99.90
20833;DHT22;56075;51.264;7.150;2022-10-22T09:29:16;18.10;99.90
20833;DHT22;56075;51.264;7.150;2022-10-22T09:31:48;16.70;99.90
20833;DHT22;56075;51.264;7.150;2022-10-22T09:34:20;16.70;99.90
20833;DHT22;56075;51.264;7.150;2022-10-22T09:37:02;16.60;99.90
20833;DHT22;56075;51.264;7.150;2022-10-22T09:39:38;16.70;99.90
20833;DHT22;56075;51.264;7.150;2022-10-22T09:42:13;17.00;99.90
20833;DHT22;56075;51.264;7.150;2022-10-22T09:44:54;18.40;99.90
20833;DHT22;56075;51.264;7.150;2022-10-22T09:47:41;18.90;99.90
20833;DHT22;56075;51.264;7.150;2022-10-22T09:50:48;18.70;99.90
20833;DHT22;56075;51.264;7.150;2022-10-22T09:53:29;16.90;99.90
20833;DHT22;56075;51.264;7.150;2022-10-22T09:56:06;18.00;99.90
20833;DHT22;56075;51.264;7.150;2022-10-22T09:58:48;16.90;99.90
20833;DHT22;56075;51.264;7.150;2022-10-22T10:04:05;16.90;99.90
20833;DHT22;56075;51.264;7.150;2022-10-22T10:06:39;17.00;99.90
20833;DHT22;56075;51.264;7.150;2022-10-22T10:09:15;16.60;99.90
20833;DHT22;56075;51.264;7.150;2022-10-22T10:17:49;17.70;99.90
20833;DHT22;56075;51.264;7.150;2022-10-22T10:22:46;16.80;99.90
20833;DHT22;56075;51.264;7.150;2022-10-22T10:28:25;16.90;99.90
20833;DHT22;56075;51.264;7.150;2022-10-22T10:31:33;17.00;99.90
20833;DHT22;56075;51.264;7.150;2022-10-22T10:42:35;17.00;99.90
20833;DHT22;56075;51.264;7.150;2022-10-22T10:50:50;16.70;99.90
20833;DHT22;56075;51.264;7.150;2022-10-22T10:53:34;16.70;99.90
20833;DHT22;56075;51.264;7.150;2022-10-22T10:56:29;16.70;99.90
20833;DHT22;56075;51.264;7.150;2022-10-22T11:07:39;16.70;99.90
20833;DHT22;56075;51.264;7.150;2022-10-22T11:16:00;16.90;99.90
20833;DHT22;56075;51.264;7.150;2022-10-22T11:18:37;16.90;99.90
20833;DHT22;56075;51.264;7.150;2022-10-22T11:21:21;16.90;99.90
20833;DHT22;56075;51.264;7.150;2022-10-22T11:27:02;17.00;99.90
20833;DHT22;56075;51.264;7.150;2022-10-22T11:29:39;17.00;99.90
20833;DHT22;56075;51.264;7.150;2022-10-22T11:32:16;18.70;99.90
20833;DHT22;56075;51.264;7.150;2022-10-22T11:34:52;17.90;99.90
20833;DHT22;56075;51.264;7.150;2022-10-22T11:37:25;16.70;99.90
20833;DHT22;56075;51.264;7.150;2022-10-22T11:40:13;18.00;99.90
20833;DHT22;56075;51.264;7.150;2022-10-22T11:42:56;16.80;99.90
20833;DHT22;56075;51.264;7.150;2022-10-22T11:45:30;18.60;99.90
20833;DHT22;56075;51.264;7.150;2022-10-22T11:50:57;16.50;99.90
20833;DHT22;56075;51.264;7.150;2022-10-22T11:53:35;16.60;99.90
20833;DHT22;56075;51.264;7.150;2022-10-22T11:58:41;16.50;99.90
20833;DHT22;56075;51.264;7.150;2022-10-22T12:01:26;16.60;99.90
20833;DHT22;56075;51.264;7.150;2022-10-22T12:06:59;16.70;99.90
20833;DHT22;56075;51.264;7.150;2022-10-22T12:09:31;16.80;99.90
20833;DHT22;56075;51.264;7.150;2022-10-22T12:12:14;16.70;99.90
20833;DHT22;56075;51.264;7.150;2022-10-22T12:14:58;16.70;99.90
20833;DHT22;56075;51.264;7.150;2022-10-22T12:17:30;16.50;99.90
20833;DHT22;56075;51.264;7.150;2022-10-22T12:20:10;16.70;99.90
20833;DHT22;56075;51.264;7.150;2022-10-22T12:22:42;16.60;99.90
20833;DHT22;56075;51.264;7.150;2022-10-22T12:25:32;16.70;99.90
20833;DHT22;56075;51.264;7.150;2022-10-22T12:28:03;16.80;99.90
20833;DHT22;56075;51.264;7.150;2022-10-22T12:30:35;16.80;99.90
20833;DHT22;56075;51.264;7.150;2022-10-22T12:33:15;16.90;99.90
20833;DHT22;56075;51.264;7.150;2022-10-22T12:35:48;18.20;99.90
20833;DHT22;56075;51.264;7.150;2022-10-22T12:38:23;17.00;99.90
20833;DHT22;56075;51.264;7.150;2022-10-22T12:40:56;16.90;99.90
20833;DHT22;56075;51.264;7.150;2022-10-22T12:43:29;16.90;99.90
20833;DHT22;56075;51.264;7.150;2022-10-22T12:46:00;17.30;99.90
20833;DHT22;56075;51.264;7.150;2022-10-22T12:48:37;17.20;99.90
20833;DHT22;56075;51.264;7.150;2022-10-22T12:51:16;17.20;99.90
20833;DHT22;56075;51.264;7.150;2022-10-22T12:54:05;18.20;99.90
20833;DHT22;56075;51.264;7.150;2022-10-22T12:56:37;17.30;99.90
20833;DHT22;56075;51.264;7.150;2022-10-22T12:59:23;17.30;99.90
20833;DHT22;56075;51.264;7.150;2022-10-22T13:01:55;18.00;99.90
20833;DHT22;56075;51.264;7.150;2022-10-22T13:04:37;17.30;99.90
20833;DHT22;56075;51.264;7.150;2022-10-22T13:09:46;18.10;99.90
20833;DHT22;56075;51.264;7.150;2022-10-22T13:12:24;19.20;99.90
20833;DHT22;56075;51.264;7.150;2022-10-22T13:14:55;17.10;99.90
20833;DHT22;56075;51.264;7.150;2022-10-22T13:17:38;17.20;99.90
20833;DHT22;56075;51.264;7.150;2022-10-22T13:20:22;17.30;99.90
20833;DHT22;56075;51.264;7.150;2022-10-22T13:22:56;18.20;99.90
20833;DHT22;56075;51.264;7.150;2022-10-22T13:25:32;17.30;99.90
20833;DHT22;56075;51.264;7.150;2022-10-22T13:28:22;17.10;99.90
20833;DHT22;56075;51.264;7.150;2022-10-22T13:31:00;17.30;99.90
20833;DHT22;56075;51.264;7.150;2022-10-22T13:33:40;17.40;99.90
20833;DHT22;56075;51.264;7.150;2022-10-22T13:36:15;17.20;99.90
20833;DHT22;56075;51.264;7.150;2022-10-22T13:38:47;19.10;99.90
20833;DHT22;56075;51.264;7.150;2022-10-22T13:41:24;19.40;99.90
20833;DHT22;56075;51.264;7.150;2022-10-22T13:43:56;17.50;99.90
20833;DHT22;56075;51.264;7.150;2022-10-22T13:46:27;17.40;99.90
20833;DHT22;56075;51.264;7.150;2022-10-22T13:48:59;17.20;99.90
20833;DHT22;56075;51.264;7.150;2022-10-22T13:51:33;17.50;99.90
20833;DHT22;56075;51.264;7.150;2022-10-22T13:54:12;17.60;99.90
20833;DHT22;56075;51.264;7.150;2022-10-22T13:56:44;17.70;99.90
20833;DHT22;56075;51.264;7.150;2022-10-22T13:59:16;17.50;99.90
20833;DHT22;56075;51.264;7.150;2022-10-22T14:01:47;17.70;99.90
20833;DHT22;56075;51.264;7.150;2022-10-22T14:04:18;18.90;99.90
20833;DHT22;56075;51.264;7.150;2022-10-22T14:06:49;19.80;99.90
20833;DHT22;56075;51.264;7.150;2022-10-22T14:09:20;19.00;99.90
20833;DHT22;56075;51.264;7.150;2022-10-22T14:11:52;17.40;99.90
20833;DHT22;56075;51.264;7.150;2022-10-22T14:14:23;19.10;99.90
20833;DHT22;56075;51.264;7.150;2022-10-22T14:16:54;17.50;99.90
20833;DHT22;56075;51.264;7.150;2022-10-22T14:19:25;19.40;99.90
20833;DHT22;56075;51.264;7.150;2022-10-22T14:21:56;19.20;99.90
20833;DHT22;56075;51.264;7.150;2022-10-22T14:24:27;18.60;99.90
20833;DHT22;56075;51.264;7.150;2022-10-22T14:26:58;19.50;99.90
20833;DHT22;56075;51.264;7.150;2022-10-22T14:29:29;19.30;99.90
20833;DHT22;56075;51.264;7.150;2022-10-22T14:32:00;18.20;99.90
20833;DHT22;56075;51.264;7.150;2022-10-22T14:34:32;19.00;99.90
20833;DHT22;56075;51.264;7.150;2022-10-22T14:37:03;18.50;99.90
20833;DHT22;56075;51.264;7.150;2022-10-22T14:39:34;18.50;99.90
20833;DHT22;56075;51.264;7.150;2022-10-22T14:42:10;19.20;99.90
20833;DHT22;56075;51.264;7.150;2022-10-22T14:44:42;19.60;99.90
20833;DHT22;56075;51.264;7.150;2022-10-22T14:47:13;19.20;99.90
20833;DHT22;56075;51.264;7.150;2022-10-22T14:49:44;20.70;99.90
20833;DHT22;56075;51.264;7.150;2022-10-22T14:52:15;21.00;99.90
20833;DHT22;56075;51.264;7.150;2022-10-22T14:54:46;18.60;99.90
20833;DHT22;56075;51.264;7.150;2022-10-22T14:57:18;19.30;99.90
20833;DHT22;56075;51.264;7.150;2022-10-22T14:59:49;20.10;99.90
20833;DHT22;56075;51.264;7.150;2022-10-22T15:02:24;20.50;99.90
20833;DHT22;56075;51.264;7.150;2022-10-22T15:04:56;18.60;99.90
20833;DHT22;56075;51.264;7.150;2022-10-22T15:07:27;18.30;99.90
20833;DHT22;56075;51.264;7.150;2022-10-22T15:09:59;18.30;99.90
20833;DHT22;56075;51.264;7.150;2022-10-22T15:12:30;18.10;99.90
20833;DHT22;56075;51.264;7.150;2022-10-22T15:15:02;18.30;99.90
20833;DHT22;56075;51.264;7.150;2022-10-22T15:17:34;18.60;99.90
20833;DHT22;56075;51.264;7.150;2022-10-22T15:20:05;19.10;99.90
20833;DHT22;56075;51.264;7.150;2022-10-22T15:22:36;19.60;99.90
20833;DHT22;56075;51.264;7.150;2022-10-22T15:25:08;19.80;99.90
20833;DHT22;56075;51.264;7.150;2022-10-22T15:27:39;19.90;99.90
20833;DHT22;56075;51.264;7.150;2022-10-22T15:30:11;22.00;99.90
20833;DHT22;56075;51.264;7.150;2022-10-22T15:32:43;20.00;99.90
20833;DHT22;56075;51.264;7.150;2022-10-22T15:35:14;20.20;99.90
20833;DHT22;56075;51.264;7.150;2022-10-22T15:37:45;20.20;99.90
20833;DHT22;56075;51.264;7.150;2022-10-22T15:40:20;20.00;99.90
20833;DHT22;56075;51.264;7.150;2022-10-22T15:42:51;19.80;99.90
20833;DHT22;56075;51.264;7.150;2022-10-22T15:45:22;19.70;99.90
20833;DHT22;56075;51.264;7.150;2022-10-22T15:47:55;19.40;99.90
20833;DHT22;56075;51.264;7.150;2022-10-22T15:50:26;19.10;99.90
20833;DHT22;56075;51.264;7.150;2022-10-22T15:52:57;19.10;99.90
20833;DHT22;56075;51.264;7.150;2022-10-22T15:55:28;18.70;99.90
20833;DHT22;56075;51.264;7.150;2022-10-22T15:57:59;18.70;99.90
20833;DHT22;56075;51.264;7.150;2022-10-22T16:00:32;18.40;99.90
20833;DHT22;56075;51.264;7.150;2022-10-22T16:03:04;20.10;99.90
20833;DHT22;56075;51.264;7.150;2022-10-22T16:05:35;17.90;99.90
20833;DHT22;56075;51.264;7.150;2022-10-22T16:08:06;17.60;99.90
20833;DHT22;56075;51.264;7.150;2022-10-22T16:10:37;18.70;99.90
20833;DHT22;56075;51.264;7.150;2022-10-22T16:13:14;18.30;99.90
20833;DHT22;56075;51.264;7.150;2022-10-22T16:15:46;17.30;99.90
20833;DHT22;56075;51.264;7.150;2022-10-22T16:18:17;17.70;99.90
20833;DHT22;56075;51.264;7.150;2022-10-22T16:20:49;17.00;99.90
20833;DHT22;56075;51.264;7.150;2022-10-22T16:23:20;19.00;99.90
20833;DHT22;56075;51.264;7.150;2022-10-22T16:25:51;16.80;99.90
20833;DHT22;56075;51.264;7.150;2022-10-22T16:28:22;18.10;99.90
20833;DHT22;56075;51.264;7.150;2022-10-22T16:30:53;16.70;99.90
20833;DHT22;56075;51.264;7.150;2022-10-22T16:33:25;16.40;99.90
20833;DHT22;56075;51.264;7.150;2022-10-22T16:35:56;16.60;99.90
20833;DHT22;56075;51.264;7.150;2022-10-22T16:38:27;16.60;99.90
20833;DHT22;56075;51.264;7.150;2022-10-22T16:41:15;16.50;99.90
20833;DHT22;56075;51.264;7.150;2022-10-22T16:43:48;17.30;99.90
20833;DHT22;56075;51.264;7.150;2022-10-22T16:46:21;17.80;99.90
20833;DHT22;56075;51.264;7.150;2022-10-22T16:48:52;16.00;99.90
20833;DHT22;56075;51.264;7.150;2022-10-22T16:51:25;17.80;99.90
20833;DHT22;56075;51.264;7.150;2022-10-22T16:53:57;16.20;99.90
20833;DHT22;56075;51.264;7.150;2022-10-22T16:56:28;16.00;99.90
20833;DHT22;56075;51.264;7.150;2022-10-22T16:58:59;17.60;99.90
20833;DHT22;56075;51.264;7.150;2022-10-22T17:01:30;17.10;99.90
20833;DHT22;56075;51.264;7.150;2022-10-22T17:04:03;15.90;99.90
20833;DHT22;56075;51.264;7.150;2022-10-22T17:06:34;15.60;99.90
20833;DHT22;56075;51.264;7.150;2022-10-22T17:09:05;15.40;99.90
20833;DHT22;56075;51.264;7.150;2022-10-22T17:11:37;15.30;99.90
20833;DHT22;56075;51.264;7.150;2022-10-22T17:14:08;16.90;99.90
20833;DHT22;56075;51.264;7.150;2022-10-22T17:16:39;15.20;99.90
20833;DHT22;56075;51.264;7.150;2022-10-22T17:19:14;15.20;99.90
20833;DHT22;56075;51.264;7.150;2022-10-22T17:21:46;16.10;99.90
20833;DHT22;56075;51.264;7.150;2022-10-22T17:24:21;14.90;99.90
20833;DHT22;56075;51.264;7.150;2022-10-22T17:27:08;15.10;99.90
20833;DHT22;56075;51.264;7.150;2022-10-22T17:29:39;15.90;99.90
20833;DHT22;56075;51.264;7.150;2022-10-22T17:32:10;14.80;99.90
20833;DHT22;56075;51.264;7.150;2022-10-22T17:34:43;14.60;99.90
20833;DHT22;56075;51.264;7.150;2022-10-22T17:37:14;16.80;99.90